createdAt,value
2019-01-11T00:00:04.390Z,15.07
2019-01-11T00:02:32.951Z,16.50
2019-01-11T00:05:01.923Z,22.40
2019-01-11T00:07:30.533Z,15.73
2019-01-11T00:09:59.096Z,388.43
2019-01-11T00:12:27.664Z,400.47
2019-01-11T00:14:56.273Z,142.00
2019-01-11T00:17:24.848Z,128.47
2019-01-11T00:19:53.406Z,83.87
2019-01-11T00:22:22.363Z,13.13
2019-01-11T00:24:50.845Z,13.17
2019-01-11T00:27:19.482Z,13.40
2019-01-11T00:29:48.080Z,21.57
2019-01-11T00:32:16.642Z,14.57
2019-01-11T00:34:45.269Z,14.87
2019-01-11T00:37:13.945Z,19.03
2019-01-11T00:39:42.582Z,12.73
2019-01-11T00:42:11.093Z,11.13
2019-01-11T00:44:39.753Z,20.93
2019-01-11T00:47:08.086Z,230.30
2019-01-11T00:49:36.657Z,259.47
2019-01-11T00:52:05.267Z,141.47
2019-01-11T00:54:33.896Z,147.70
2019-01-11T00:57:02.544Z,189.97
2019-01-11T00:59:31.140Z,157.43
2019-01-11T01:01:59.713Z,197.23
2019-01-11T01:04:28.358Z,141.63
2019-01-11T01:06:57.053Z,153.07
2019-01-11T01:09:25.692Z,163.20
2019-01-11T01:11:54.471Z,144.57
2019-01-11T01:14:22.987Z,142.57
2019-01-11T01:16:51.623Z,141.77
2019-01-11T01:19:20.201Z,132.87
2019-01-11T01:21:48.605Z,141.10
2019-01-11T01:24:17.241Z,138.53
2019-01-11T01:26:45.804Z,135.80
2019-01-11T01:29:14.380Z,134.73
2019-01-11T01:31:43.017Z,144.07
2019-01-11T01:34:11.586Z,137.70
2019-01-11T01:36:40.272Z,138.17
2019-01-11T01:39:09.314Z,131.23
2019-01-11T01:41:38.044Z,140.30
2019-01-11T01:44:06.722Z,133.63
2019-01-11T01:46:35.354Z,143.57
2019-01-11T01:49:03.920Z,132.77
2019-01-11T01:51:32.548Z,136.63
2019-01-11T01:54:01.047Z,140.73
2019-01-11T01:56:29.623Z,133.83
2019-01-11T01:58:58.184Z,137.80
2019-01-11T02:01:26.820Z,134.83
2019-01-11T02:03:55.391Z,149.67
2019-01-11T02:06:23.996Z,139.63
2019-01-11T02:08:52.920Z,146.27
2019-01-11T02:11:21.494Z,139.33
2019-01-11T02:13:50.149Z,144.37
2019-01-11T02:16:18.793Z,137.97
2019-01-11T02:18:47.297Z,146.37
2019-01-11T02:21:15.910Z,154.50
2019-01-11T02:23:44.479Z,383.47
2019-01-11T02:26:13.050Z,150.17
2019-01-11T02:28:41.653Z,145.17
2019-01-11T02:31:10.222Z,136.77
2019-01-11T02:33:38.864Z,134.33
2019-01-11T02:36:07.549Z,138.77
2019-01-11T02:38:36.123Z,177.87
2019-01-11T02:41:04.699Z,133.47
2019-01-11T02:43:32.989Z,124.83
2019-01-11T02:46:01.562Z,129.00
2019-01-11T02:48:30.130Z,129.03
2019-01-11T02:50:58.418Z,130.87
2019-01-11T02:53:26.994Z,133.23
2019-01-11T02:55:55.626Z,128.20
2019-01-11T02:58:24.382Z,194.57
2019-01-11T03:00:53.724Z,147.07
2019-01-11T03:03:22.413Z,248.20
2019-01-11T03:05:50.911Z,191.63
2019-01-11T03:08:19.581Z,138.77
2019-01-11T03:10:48.422Z,155.03
2019-01-11T03:13:16.965Z,143.40
2019-01-11T03:15:45.541Z,186.40
2019-01-11T03:18:14.110Z,137.17
2019-01-11T03:20:42.725Z,194.20
2019-01-11T03:23:11.361Z,182.60
2019-01-11T03:25:39.997Z,147.87
2019-01-11T03:28:08.548Z,150.07
2019-01-11T03:30:37.050Z,324.90
2019-01-11T03:33:05.545Z,130.80
2019-01-11T03:35:34.174Z,140.23
2019-01-11T03:38:02.855Z,143.83
2019-01-11T03:40:31.712Z,141.40
2019-01-11T03:43:00.315Z,141.80
2019-01-11T03:45:30.051Z,143.90
2019-01-11T03:47:58.824Z,133.83
2019-01-11T03:50:27.441Z,137.17
2019-01-11T03:52:56.009Z,144.53
2019-01-11T03:55:24.574Z,137.00
2019-01-11T03:57:53.591Z,142.30
2019-01-11T04:00:22.836Z,150.97
2019-01-11T04:02:52.190Z,147.17
2019-01-11T04:05:20.816Z,149.53
2019-01-11T04:07:49.803Z,142.37
2019-01-11T04:10:20.183Z,149.93
2019-01-11T04:12:48.803Z,146.30
2019-01-11T04:15:18.870Z,143.80
2019-01-11T04:17:49.104Z,140.93
2019-01-11T04:20:18.814Z,142.93
2019-01-11T04:22:49.033Z,149.83
2019-01-11T04:25:19.614Z,153.00
2019-01-11T04:27:48.331Z,154.23
2019-01-11T04:30:17.308Z,143.50
2019-01-11T04:32:45.876Z,148.03
2019-01-11T04:35:14.502Z,138.10
2019-01-11T04:37:43.061Z,142.50
2019-01-11T04:40:12.921Z,139.47
2019-01-11T04:42:41.467Z,143.43
2019-01-11T04:45:10.487Z,141.07
2019-01-11T04:47:39.394Z,169.37
2019-01-11T04:50:10.506Z,144.77
2019-01-11T04:52:39.000Z,281.07
2019-01-11T04:55:07.641Z,157.80
2019-01-11T04:57:36.243Z,146.20
2019-01-11T05:00:08.011Z,152.80
2019-01-11T05:02:36.494Z,144.83
2019-01-11T05:05:06.710Z,152.10
2019-01-11T05:07:35.342Z,661.13
2019-01-11T05:10:07.292Z,120.87
2019-01-11T05:12:35.912Z,140.43
2019-01-11T05:15:05.092Z,123.80
2019-01-11T05:17:33.581Z,77.13
2019-01-11T05:20:02.194Z,69.40
2019-01-11T05:22:30.863Z,121.87
2019-01-11T05:24:59.139Z,566.50
2019-01-11T05:27:27.748Z,1326.90
2019-01-11T05:29:56.004Z,509.73
2019-01-11T05:32:24.584Z,918.60
2019-01-11T05:34:53.197Z,596.40
2019-01-11T05:37:21.688Z,58.23
2019-01-11T05:39:50.180Z,26.37
2019-01-11T05:42:18.781Z,16.43
2019-01-11T05:44:47.345Z,11.63
2019-01-11T05:47:15.912Z,72.83
2019-01-11T05:49:44.528Z,13.13
2019-01-11T05:52:13.118Z,29.23
2019-01-11T05:54:42.543Z,553.63
2019-01-11T05:57:11.321Z,146.83
2019-01-11T05:59:39.902Z,152.40
2019-01-11T06:02:08.474Z,231.77
2019-01-11T06:04:43.663Z,144.97
2019-01-11T06:07:22.916Z,120.13
2019-01-11T06:09:51.540Z,304.07
2019-01-11T06:12:20.263Z,93.43
2019-01-11T06:14:48.996Z,126.77
2019-01-11T06:17:17.717Z,38.37
2019-01-11T06:19:46.351Z,147.37
2019-01-11T06:22:14.990Z,49.27
2019-01-11T06:24:43.604Z,31.90
2019-01-11T06:27:12.291Z,31.03
2019-01-11T06:29:41.617Z,30.87
2019-01-11T06:32:10.290Z,48.90
2019-01-11T06:34:38.879Z,66.10
2019-01-11T06:37:07.437Z,85.47
2019-01-11T06:39:36.037Z,140.03
2019-01-11T06:42:06.191Z,150.90
2019-01-11T06:44:38.889Z,150.47
2019-01-11T06:47:05.529Z,158.13
2019-01-11T06:49:34.033Z,155.70
2019-01-11T06:52:02.682Z,162.33
2019-01-11T06:54:31.302Z,159.87
2019-01-11T06:56:59.941Z,159.27
2019-01-11T06:59:29.141Z,140.73
2019-01-11T07:01:57.819Z,122.33
2019-01-11T07:04:26.388Z,139.80
2019-01-11T07:06:54.964Z,116.73
2019-01-11T07:09:24.485Z,103.63
2019-01-11T07:11:53.633Z,88.07
2019-01-11T07:14:22.683Z,199.73
2019-01-11T07:16:51.374Z,78.63
2019-01-11T07:19:20.011Z,61.00
2019-01-11T07:21:48.656Z,63.57
2019-01-11T07:24:17.348Z,56.43
2019-01-11T07:26:45.987Z,54.13
2019-01-11T07:29:14.627Z,83.30
2019-01-11T07:31:45.108Z,66.77
2019-01-11T07:34:13.812Z,55.20
2019-01-11T07:36:42.819Z,92.90
2019-01-11T07:39:13.044Z,20.20
2019-01-11T07:41:45.442Z,28.13
2019-01-11T07:44:17.202Z,92.17
2019-01-11T07:46:45.800Z,52.13
2019-01-11T07:49:14.420Z,24.53
2019-01-11T07:51:45.920Z,17.23
2019-01-11T07:54:15.177Z,17.50
2019-01-11T07:56:46.415Z,15.10
2019-01-11T07:59:15.771Z,18.80
2019-01-11T08:01:44.390Z,16.07
2019-01-11T08:04:13.237Z,12.47
2019-01-11T08:06:41.907Z,9.93
2019-01-11T08:09:10.480Z,10.97
2019-01-11T08:11:39.958Z,14.70
2019-01-11T08:14:08.648Z,11.47
2019-01-11T08:16:37.277Z,12.97
2019-01-11T08:19:05.935Z,12.57
2019-01-11T08:21:34.609Z,18.70
2019-01-11T08:24:03.240Z,12.77
2019-01-11T08:26:31.878Z,168.90
2019-01-11T08:29:00.557Z,173.30
2019-01-11T08:31:34.696Z,145.40
2019-01-11T08:33:59.504Z,32.63
2019-01-11T08:36:28.187Z,18.17
2019-01-11T08:38:56.827Z,23.27
2019-01-11T08:41:25.458Z,30.10
2019-01-11T08:43:54.510Z,166.47
2019-01-11T08:46:23.141Z,170.03
2019-01-11T08:48:51.788Z,154.27
2019-01-11T08:51:20.485Z,174.57
2019-01-11T08:53:49.171Z,168.67
2019-01-11T08:56:18.115Z,165.33
2019-01-11T08:58:46.753Z,181.73
2019-01-11T09:01:15.413Z,156.20
2019-01-11T09:03:44.062Z,171.00
2019-01-11T09:06:13.445Z,130.00
2019-01-11T09:08:42.093Z,118.07
2019-01-11T09:11:10.741Z,84.43
2019-01-11T09:13:40.321Z,85.37
2019-01-11T09:16:08.887Z,88.87
2019-01-11T09:18:41.817Z,91.77
2019-01-11T09:21:11.472Z,127.80
2019-01-11T09:23:40.095Z,110.33
2019-01-11T09:26:09.276Z,152.43
2019-01-11T09:28:38.268Z,94.40
2019-01-11T09:31:06.822Z,45.00
2019-01-11T09:33:35.465Z,33.27
2019-01-11T09:36:04.160Z,31.87
2019-01-11T09:38:32.788Z,19.53
2019-01-11T09:41:01.535Z,22.07
2019-01-11T09:43:30.143Z,32.03
2019-01-11T09:45:58.771Z,16.23
2019-01-11T09:48:27.164Z,133.73
2019-01-11T09:50:55.483Z,129.20
2019-01-11T09:53:23.746Z,114.50
2019-01-11T09:55:52.320Z,126.43
2019-01-11T09:58:20.651Z,111.57
2019-01-11T10:00:49.199Z,116.50
2019-01-11T10:03:17.857Z,124.53
2019-01-11T10:05:46.469Z,132.33
2019-01-11T10:08:15.121Z,81.28
2019-01-11T10:10:43.446Z,156.10
2019-01-11T10:13:11.987Z,147.43
2019-01-11T10:15:40.897Z,145.73
2019-01-11T10:18:09.471Z,185.53
2019-01-11T10:20:38.076Z,166.63
2019-01-11T10:23:06.707Z,155.27
2019-01-11T10:25:35.282Z,154.23
2019-01-11T10:28:03.906Z,163.90
2019-01-11T10:30:32.594Z,140.70
2019-01-11T10:33:01.192Z,188.17
2019-01-11T10:35:29.794Z,184.37
2019-01-11T10:37:58.370Z,159.23
2019-01-11T10:40:27.012Z,159.37
2019-01-11T10:42:56.091Z,90.93
2019-01-11T10:45:24.656Z,62.03
2019-01-11T10:47:53.227Z,50.33
2019-01-11T10:50:21.830Z,34.10
2019-01-11T10:52:51.524Z,34.07
2019-01-11T10:55:20.104Z,30.27
2019-01-11T10:57:48.740Z,24.23
2019-01-11T11:00:21.869Z,22.93
2019-01-11T11:02:51.485Z,27.23
2019-01-11T11:05:20.315Z,21.93
2019-01-11T11:07:48.888Z,29.40
2019-01-11T11:10:17.568Z,31.87
2019-01-11T11:12:46.110Z,28.20
2019-01-11T11:15:16.285Z,38.87
2019-01-11T11:17:45.876Z,23.63
2019-01-11T11:20:16.333Z,39.87
2019-01-11T11:22:45.003Z,25.00
2019-01-11T11:25:18.607Z,50.07
2019-01-11T11:27:47.633Z,36.43
2019-01-11T11:30:17.882Z,37.83
2019-01-11T11:32:59.730Z,20.77
2019-01-11T11:35:28.287Z,23.37
2019-01-11T11:37:57.134Z,29.60
2019-01-11T11:40:25.796Z,36.53
2019-01-11T11:42:54.306Z,28.57
2019-01-11T11:45:22.879Z,35.00
2019-01-11T11:47:51.561Z,26.67
2019-01-11T11:50:20.129Z,24.40
2019-01-11T11:52:48.745Z,29.03
2019-01-11T11:55:17.423Z,27.23
2019-01-11T11:57:45.999Z,30.60
2019-01-11T12:00:17.341Z,23.57
2019-01-11T12:02:46.002Z,30.73
2019-01-11T12:05:14.652Z,24.33
2019-01-11T12:07:43.295Z,36.80
2019-01-11T12:10:14.362Z,26.07
2019-01-11T12:12:42.977Z,26.30
2019-01-11T12:15:13.043Z,30.20
2019-01-11T12:17:41.615Z,39.93
2019-01-11T12:20:14.474Z,21.47
2019-01-11T12:22:43.043Z,34.43
2019-01-11T12:25:11.643Z,20.80
2019-01-11T12:27:40.312Z,23.30
2019-01-11T12:30:14.777Z,15.70
2019-01-11T12:32:43.877Z,35.10
2019-01-11T12:35:13.485Z,29.20
2019-01-11T12:37:42.159Z,21.90
2019-01-11T12:40:12.781Z,24.10
2019-01-11T12:42:41.268Z,26.83
2019-01-11T12:45:12.236Z,33.40
2019-01-11T12:47:40.854Z,42.53
2019-01-11T12:50:15.210Z,36.77
2019-01-11T12:52:43.788Z,19.37
2019-01-11T12:55:12.463Z,28.60
2019-01-11T12:57:41.107Z,28.37
2019-01-11T13:00:13.245Z,30.47
2019-01-11T13:02:41.845Z,21.20
2019-01-11T13:05:12.616Z,35.47
2019-01-11T13:07:41.263Z,21.43
2019-01-11T13:10:12.579Z,26.37
2019-01-11T13:12:41.609Z,20.40
2019-01-11T13:15:12.648Z,26.47
2019-01-11T13:17:42.525Z,16.43
2019-01-11T13:20:13.504Z,28.97
2019-01-11T13:22:42.132Z,22.43
2019-01-11T13:25:10.813Z,29.87
2019-01-11T13:27:39.375Z,19.43
2019-01-11T13:30:13.604Z,25.20
2019-01-11T13:32:42.211Z,27.03
2019-01-11T13:35:10.775Z,27.97
2019-01-11T13:37:39.605Z,20.27
2019-01-11T13:40:11.402Z,26.07
2019-01-11T13:42:40.107Z,17.67
2019-01-11T13:45:08.749Z,20.20
2019-01-11T13:47:37.297Z,30.40
2019-01-11T13:50:17.853Z,25.87
2019-01-11T13:52:46.459Z,32.80
2019-01-11T13:55:15.098Z,28.03
2019-01-11T13:57:43.668Z,24.93
2019-01-11T14:00:14.740Z,20.97
2019-01-11T14:02:43.355Z,29.50
2019-01-11T14:05:11.975Z,43.23
2019-01-11T14:07:40.644Z,19.80
2019-01-11T14:10:10.774Z,21.83
2019-01-11T14:12:39.484Z,18.47
2019-01-11T14:15:10.364Z,23.63
2019-01-11T14:17:38.999Z,34.03
2019-01-11T14:20:11.299Z,32.93
2019-01-11T14:22:40.257Z,20.77
2019-01-11T14:25:10.133Z,35.40
2019-01-11T14:27:38.778Z,24.23
2019-01-11T14:30:16.011Z,36.43
2019-01-11T14:32:44.504Z,40.13
2019-01-11T14:35:13.083Z,29.20
2019-01-11T14:37:41.787Z,28.63
2019-01-11T14:40:13.224Z,31.17
2019-01-11T14:42:41.727Z,32.10
2019-01-11T14:45:12.712Z,36.10
2019-01-11T14:47:41.343Z,30.17
2019-01-11T14:50:15.218Z,29.13
2019-01-11T14:52:43.852Z,20.53
2019-01-11T14:55:12.418Z,27.10
2019-01-11T14:57:41.018Z,31.43
2019-01-11T15:00:12.556Z,25.63
2019-01-11T15:02:41.193Z,14.47
2019-01-11T15:05:11.694Z,28.47
2019-01-11T15:07:40.263Z,32.87
2019-01-11T15:10:13.134Z,24.13
2019-01-11T15:12:42.107Z,27.30
2019-01-11T15:15:10.670Z,36.53
2019-01-11T15:17:39.311Z,40.90
2019-01-11T15:20:10.998Z,27.10
2019-01-11T15:22:41.202Z,17.50
2019-01-11T15:25:10.743Z,32.50
2019-01-11T15:27:39.420Z,45.43
2019-01-11T15:30:10.944Z,18.80
2019-01-11T15:32:39.569Z,25.53
2019-01-11T15:35:10.576Z,28.00
2019-01-11T15:37:39.390Z,30.00
2019-01-11T15:40:19.876Z,29.43
2019-01-11T15:42:48.435Z,26.73
2019-01-11T15:45:17.074Z,25.50
2019-01-11T15:47:45.799Z,38.27
2019-01-11T15:50:33.856Z,25.83
2019-01-11T15:53:02.970Z,31.83
2019-01-11T15:55:32.009Z,27.20
2019-01-11T15:58:00.657Z,51.43
2019-01-11T16:00:29.332Z,72.90
2019-01-11T16:02:57.983Z,31.97
2019-01-11T16:05:28.201Z,24.90
2019-01-11T16:07:56.849Z,34.07
2019-01-11T16:10:25.458Z,29.67
2019-01-11T16:12:54.034Z,30.37
2019-01-11T16:15:31.879Z,29.13
2019-01-11T16:18:03.636Z,40.70
2019-01-11T16:20:32.205Z,44.87
2019-01-11T16:23:00.883Z,40.03
2019-01-11T16:25:29.914Z,30.80
2019-01-11T16:28:01.289Z,31.97
2019-01-11T16:30:30.043Z,27.57
2019-01-11T16:32:58.966Z,29.33
2019-01-11T16:35:27.660Z,43.37
2019-01-11T16:37:56.466Z,28.07
2019-01-11T16:40:25.125Z,30.67
2019-01-11T16:42:53.753Z,36.60
2019-01-11T16:45:22.363Z,24.13
2019-01-11T16:47:50.954Z,35.77
2019-01-11T16:50:19.821Z,46.03
2019-01-11T16:52:48.424Z,38.93
2019-01-11T16:55:17.085Z,22.13
2019-01-11T16:57:45.590Z,26.73
2019-01-11T17:00:18.910Z,38.17
2019-01-11T17:02:47.907Z,37.17
2019-01-11T17:05:16.479Z,25.20
2019-01-11T17:07:45.074Z,17.57
2019-01-11T17:10:14.104Z,26.60
2019-01-11T17:12:42.727Z,29.77
2019-01-11T17:15:16.568Z,27.83
2019-01-11T17:17:45.132Z,44.23
2019-01-11T17:20:16.233Z,42.13
2019-01-11T17:22:44.868Z,28.50
2019-01-11T17:25:13.554Z,21.27
2019-01-11T17:27:42.166Z,26.03
2019-01-11T17:30:16.160Z,25.77
2019-01-11T17:32:44.851Z,38.80
2019-01-11T17:35:13.828Z,42.93
2019-01-11T17:37:42.439Z,28.90
2019-01-11T17:40:12.012Z,25.17
2019-01-11T17:42:40.664Z,35.37
2019-01-11T17:45:11.621Z,99.30
2019-01-11T17:47:40.290Z,441.77
2019-01-11T17:50:11.990Z,15.47
2019-01-11T17:52:40.520Z,25.90
2019-01-11T17:55:09.095Z,15.33
2019-01-11T17:57:37.580Z,16.37
2019-01-11T18:00:09.657Z,16.77
2019-01-11T18:02:38.240Z,19.87
2019-01-11T18:05:11.232Z,20.60
2019-01-11T18:07:39.924Z,21.07
2019-01-11T18:10:10.763Z,19.77
2019-01-11T18:12:39.598Z,11.70
2019-01-11T18:15:14.281Z,24.97
2019-01-11T18:17:42.896Z,19.30
2019-01-11T18:20:20.283Z,21.53
2019-01-11T18:22:48.921Z,12.23
2019-01-11T18:25:17.490Z,25.63
2019-01-11T18:27:46.178Z,19.70
2019-01-11T18:30:17.997Z,20.70
2019-01-11T18:32:46.665Z,13.47
2019-01-11T18:35:15.614Z,15.40
2019-01-11T18:37:44.169Z,14.33
2019-01-11T18:40:18.483Z,21.93
2019-01-11T18:42:47.199Z,19.63
2019-01-11T18:45:15.835Z,17.70
2019-01-11T18:47:44.403Z,19.30
2019-01-11T18:50:18.380Z,17.20
2019-01-11T18:52:46.946Z,528.10
2019-01-11T18:55:15.275Z,302.53
2019-01-11T18:57:43.954Z,204.50
2019-01-11T19:00:18.237Z,517.13
2019-01-11T19:02:46.836Z,23.77
2019-01-11T19:05:16.093Z,26.53
2019-01-11T19:07:46.161Z,25.87
2019-01-11T19:10:19.815Z,39.67
2019-01-11T19:12:48.964Z,36.60
2019-01-11T19:15:27.233Z,31.17
2019-01-11T19:17:56.219Z,26.63
2019-01-11T19:20:26.883Z,41.13
2019-01-11T19:22:55.510Z,20.40
2019-01-11T19:25:24.110Z,19.30
2019-01-11T19:27:52.735Z,20.43
2019-01-11T19:30:26.014Z,29.80
2019-01-11T19:32:54.669Z,51.33
2019-01-11T19:35:23.336Z,28.03
2019-01-11T19:37:52.030Z,26.80
2019-01-11T19:40:20.679Z,42.00
2019-01-11T19:42:49.227Z,27.00
2019-01-11T19:45:18.100Z,44.07
2019-01-11T19:47:46.720Z,23.60
2019-01-11T19:50:23.029Z,25.83
2019-01-11T19:52:51.600Z,22.67
2019-01-11T19:55:20.259Z,21.63
2019-01-11T19:57:48.972Z,13.17
2019-01-11T20:00:22.704Z,26.73
2019-01-11T20:02:51.277Z,19.50
2019-01-11T20:05:19.966Z,25.83
2019-01-11T20:07:51.572Z,16.50
2019-01-11T20:10:22.856Z,16.30
2019-01-11T20:12:51.485Z,16.70
2019-01-11T20:15:20.129Z,15.30
2019-01-11T20:17:48.803Z,26.70
2019-01-11T20:20:17.450Z,19.50
2019-01-11T20:22:46.102Z,18.73
2019-01-11T20:25:19.213Z,12.37
2019-01-11T20:27:47.837Z,18.07
2019-01-11T20:30:18.677Z,20.53
2019-01-11T20:32:48.582Z,23.57
2019-01-11T20:35:17.216Z,27.40
2019-01-11T20:37:46.259Z,19.17
2019-01-11T20:40:16.058Z,13.90
2019-01-11T20:42:44.611Z,19.37
2019-01-11T20:45:15.725Z,18.20
2019-01-11T20:47:44.450Z,18.03
2019-01-11T20:50:17.887Z,16.70
2019-01-11T20:52:48.244Z,17.67
2019-01-11T20:55:16.906Z,29.23
2019-01-11T20:57:45.655Z,20.43
2019-01-11T21:00:20.442Z,21.83
2019-01-11T21:02:49.092Z,19.50
2019-01-11T21:05:19.722Z,20.13
2019-01-11T21:07:49.890Z,24.70
2019-01-11T21:10:18.629Z,27.43
2019-01-11T21:12:56.568Z,20.00
2019-01-11T21:15:25.135Z,21.50
2019-01-11T21:17:53.770Z,24.73
2019-01-11T21:20:22.457Z,23.20
2019-01-11T21:22:51.101Z,20.03
2019-01-11T21:25:20.251Z,24.87
2019-01-11T21:27:48.938Z,25.40
2019-01-11T21:30:20.242Z,21.40
2019-01-11T21:32:48.873Z,23.27
2019-01-11T21:35:17.557Z,20.27
2019-01-11T21:37:46.204Z,25.20
2019-01-11T21:40:16.893Z,22.77
2019-01-11T21:42:45.961Z,22.33
2019-01-11T21:45:14.528Z,25.23
2019-01-11T21:47:43.094Z,22.83
2019-01-11T21:50:14.386Z,23.53
2019-01-11T21:52:43.022Z,26.83
2019-01-11T21:55:12.659Z,24.50
2019-01-11T21:57:41.338Z,25.50
2019-01-11T22:01:04.741Z,27.67
2019-01-11T22:03:33.355Z,25.03
2019-01-11T22:06:01.989Z,28.93
2019-01-11T22:08:30.631Z,27.93
2019-01-11T22:10:59.320Z,33.37
2019-01-11T22:13:28.370Z,25.60
2019-01-11T22:15:57.015Z,30.00
2019-01-11T22:18:25.705Z,21.70
2019-01-11T22:20:54.347Z,28.87
2019-01-11T22:23:23.818Z,33.20
2019-01-11T22:25:52.801Z,32.43
2019-01-11T22:28:21.431Z,39.57
2019-01-11T22:30:50.003Z,29.77
2019-01-11T22:33:18.687Z,24.90
2019-01-11T22:35:47.343Z,29.10
2019-01-11T22:38:15.978Z,29.80
2019-01-11T22:40:44.509Z,34.57
2019-01-11T22:43:13.154Z,40.50
2019-01-11T22:45:41.784Z,38.23
2019-01-11T22:48:10.906Z,29.70
2019-01-11T22:50:39.558Z,35.83
2019-01-11T22:53:08.136Z,33.30
2019-01-11T22:55:36.817Z,39.20
2019-01-11T22:58:05.469Z,32.90
2019-01-11T23:00:47.384Z,27.67
2019-01-11T23:03:19.143Z,31.90
2019-01-11T23:05:48.625Z,34.43
2019-01-11T23:08:19.138Z,31.10
2019-01-11T23:11:05.913Z,31.60
2019-01-11T23:13:34.583Z,35.83
2019-01-11T23:16:03.521Z,37.30
2019-01-11T23:19:26.823Z,32.20
2019-01-11T23:21:55.319Z,41.47
2019-01-11T23:24:23.976Z,42.13
2019-01-11T23:26:52.574Z,34.03
2019-01-11T23:29:21.204Z,31.43
2019-01-11T23:31:49.843Z,28.23
2019-01-11T23:34:18.514Z,30.80
2019-01-11T23:36:47.149Z,35.27
2019-01-11T23:39:15.711Z,34.80
2019-01-11T23:41:45.757Z,30.87
2019-01-11T23:44:14.492Z,21.83
2019-01-11T23:46:42.983Z,23.10
2019-01-11T23:49:11.659Z,27.13
2019-01-11T23:51:40.302Z,23.27
2019-01-11T23:54:08.927Z,25.43
2019-01-11T23:56:37.533Z,33.97
2019-01-11T23:59:06.103Z,26.03
